Time;durP1;ratioP1;P1;durP2;ratioP2;P2;SDS_P1;SDS_P2;PMS_P1;PMS_P2;Temp;Humidity;BMP_temperature;BMP_pressure;BME280_temperature;BME280_humidity;BME280_pressure;Samples;Min_cycle;Max_cycle;Signal;HPM_P1;HPM_P2
2022/02/20 00:02:38;;;;;;;6.37;3.57;;;;;;;;;;6205650;28;20250;-73
2022/02/20 00:06:00;;;;;;;6.30;4.27;;;;;;;;;;6207579;28;20230;-73
2022/02/20 00:09:21;;;;;;;4.90;3.63;;;;;;;;;;6211762;28;20253;-73
2022/02/20 00:12:42;;;;;;;5.67;3.80;;;;;;;;;;6210926;28;20240;-74
2022/02/20 00:16:03;;;;;;;5.27;3.40;;;;;;;;;;6219497;28;20528;-73
2022/02/20 00:19:23;;;;;;;5.07;2.60;;;;;;;;;;6218434;28;20233;-73
2022/02/20 00:22:45;;;;;;;4.97;3.17;;;;;;;;;;6213173;28;20352;-73
2022/02/20 00:26:06;;;;;;;4.80;3.20;;;;;;;;;;6211757;28;20594;-73
2022/02/20 00:29:26;;;;;;;4.80;3.10;;;;;;;;;;6201999;28;21594;-74
2022/02/20 00:32:47;;;;;;;3.97;2.77;;;;;;;;;;6216441;28;20237;-74
2022/02/20 00:36:08;;;;;;;5.93;3.07;;;;;;;;;;6216275;28;20221;-73
2022/02/20 00:39:31;;;;;;;6.07;3.23;;;;;;;;;;6204160;28;20221;-73
2022/02/20 00:42:54;;;;;;;4.07;2.17;;;;;;;;;;6192653;28;20233;-73
2022/02/20 00:46:14;;;;;;;5.70;2.67;;;;;;;;;;6217773;28;20249;-73
2022/02/20 00:49:37;;;;;;;5.67;2.50;;;;;;;;;;6215986;28;20611;-73
2022/02/20 00:52:59;;;;;;;4.37;2.37;;;;;;;;;;6198917;28;20250;-73
2022/02/20 00:56:21;;;;;;;2.73;2.30;;;;;;;;;;6218220;28;20610;-73
2022/02/20 00:59:42;;;;;;;2.23;2.03;;;;;;;;;;6201651;28;20244;-73
2022/02/20 01:03:03;;;;;;;3.97;2.40;;;;;;;;;;6197952;28;20229;-73
2022/02/20 01:06:24;;;;;;;4.07;3.07;;;;;;;;;;6217615;28;20237;-74
2022/02/20 01:09:45;;;;;;;2.00;1.80;;;;;;;;;;6199336;28;20316;-73
2022/02/20 01:13:07;;;;;;;2.30;2.07;;;;;;;;;;6216531;28;20222;-74
2022/02/20 01:16:27;;;;;;;2.77;1.57;;;;;;;;;;6216681;28;20229;-73
2022/02/20 01:19:48;;;;;;;2.70;2.50;;;;;;;;;;6199253;28;20501;-73
2022/02/20 01:23:08;;;;;;;3.83;2.27;;;;;;;;;;6215666;28;20264;-73
2022/02/20 01:26:29;;;;;;;2.00;1.80;;;;;;;;;;6214204;28;20328;-73
2022/02/20 01:29:50;;;;;;;2.13;1.73;;;;;;;;;;6215611;28;20233;-73
2022/02/20 01:33:12;;;;;;;3.23;1.67;;;;;;;;;;6200462;28;20229;-73
2022/02/20 01:36:33;;;;;;;1.73;1.37;;;;;;;;;;6204096;28;20225;-73
2022/02/20 01:39:56;;;;;;;1.50;1.37;;;;;;;;;;6192247;28;20245;-73
2022/02/20 01:43:18;;;;;;;1.50;1.40;;;;;;;;;;6200345;28;20450;-73
2022/02/20 01:46:45;;;;;;;1.50;1.40;;;;;;;;;;6195378;28;20224;-72
2022/02/20 01:50:07;;;;;;;2.37;1.70;;;;;;;;;;6186561;28;20241;-73
2022/02/20 01:53:28;;;;;;;1.60;1.50;;;;;;;;;;6198856;28;20233;-73
2022/02/20 01:56:51;;;;;;;1.97;1.87;;;;;;;;;;6206415;28;20660;-73
2022/02/20 02:00:20;;;;;;;2.27;2.07;;;;;;;;;;6199123;28;20319;-73
2022/02/20 02:03:49;;;;;;;1.70;1.60;;;;;;;;;;6206029;28;20233;-72
2022/02/20 02:07:29;;;;;;;2.47;2.00;;;;;;;;;;6197161;28;20244;-72
2022/02/20 02:10:59;;;;;;;1.70;1.60;;;;;;;;;;6184693;28;20221;-72
2022/02/20 02:14:50;;;;;;;2.50;2.30;;;;;;;;;;6209533;28;20229;-73
2022/02/20 02:18:45;;;;;;;2.33;2.07;;;;;;;;;;6209996;28;20874;-73
2022/02/20 02:22:27;;;;;;;3.73;3.43;;;;;;;;;;6213112;28;20232;-75
2022/02/20 02:26:11;;;;;;;3.73;3.43;;;;;;;;;;6199644;28;20285;-73
2022/02/20 02:30:02;;;;;;;3.13;2.93;;;;;;;;;;6182999;28;20611;-75
2022/02/20 02:33:27;;;;;;;3.43;3.07;;;;;;;;;;6204002;28;20237;-73
2022/02/20 02:36:49;;;;;;;3.90;3.60;;;;;;;;;;6211894;28;20232;-73
2022/02/20 02:40:12;;;;;;;2.97;2.27;;;;;;;;;;6195271;28;20229;-73
2022/02/20 02:43:33;;;;;;;2.43;2.33;;;;;;;;;;6199042;28;20225;-72
2022/02/20 02:46:54;;;;;;;2.50;2.40;;;;;;;;;;6195788;28;20236;-73
2022/02/20 02:50:14;;;;;;;2.90;2.70;;;;;;;;;;6214136;28;20548;-73
2022/02/20 02:53:35;;;;;;;3.20;3.00;;;;;;;;;;6188349;28;20226;-72
2022/02/20 02:56:57;;;;;;;4.20;3.03;;;;;;;;;;6208177;28;20230;-73
2022/02/20 03:00:19;;;;;;;3.20;2.80;;;;;;;;;;6197339;28;20233;-73
2022/02/20 03:03:39;;;;;;;3.47;2.90;;;;;;;;;;6187982;28;20264;-73
2022/02/20 03:07:00;;;;;;;3.67;3.37;;;;;;;;;;6208698;28;20229;-72
2022/02/20 03:10:21;;;;;;;3.57;3.37;;;;;;;;;;6208109;28;20241;-72
2022/02/20 03:13:43;;;;;;;4.17;3.20;;;;;;;;;;6185664;28;20233;-73
2022/02/20 03:17:08;;;;;;;3.10;2.93;;;;;;;;;;6192319;28;20230;-73
2022/02/20 03:20:28;;;;;;;3.70;3.40;;;;;;;;;;6206018;28;20324;-72
2022/02/20 03:23:49;;;;;;;3.77;3.47;;;;;;;;;;6193748;28;20241;-73
2022/02/20 03:27:10;;;;;;;4.07;3.67;;;;;;;;;;6195302;28;20229;-72
2022/02/20 03:30:33;;;;;;;4.30;4.00;;;;;;;;;;6203109;28;20224;-73
2022/02/20 03:33:55;;;;;;;4.40;4.00;;;;;;;;;;6194510;28;20734;-73
2022/02/20 03:37:17;;;;;;;4.43;4.13;;;;;;;;;;6192939;28;21311;-72
2022/02/20 03:40:38;;;;;;;5.40;4.63;;;;;;;;;;6197359;28;20241;-73
2022/02/20 03:44:00;;;;;;;5.17;4.67;;;;;;;;;;6196127;28;20312;-71
2022/02/20 03:47:34;;;;;;;6.17;5.53;;;;;;;;;;6196997;28;20229;-73
2022/02/20 03:50:56;;;;;;;6.33;5.50;;;;;;;;;;6208024;28;20237;-72
2022/02/20 03:54:16;;;;;;;6.27;5.77;;;;;;;;;;6213774;28;20684;-72
2022/02/20 03:57:37;;;;;;;7.00;6.50;;;;;;;;;;6212910;28;20232;-72
2022/02/20 04:01:09;;;;;;;7.57;6.47;;;;;;;;;;6217782;28;20582;-72
2022/02/20 04:04:37;;;;;;;7.87;7.27;;;;;;;;;;6201985;28;20320;-73
2022/02/20 04:07:58;;;;;;;7.93;7.27;;;;;;;;;;6179129;28;20229;-72
2022/02/20 04:11:21;;;;;;;7.13;6.53;;;;;;;;;;6214705;28;20241;-72
2022/02/20 04:14:48;;;;;;;9.00;7.60;;;;;;;;;;6202050;28;20233;-72
2022/02/20 04:18:09;;;;;;;8.27;7.57;;;;;;;;;;6202559;28;20233;-73
2022/02/20 04:21:31;;;;;;;8.43;7.83;;;;;;;;;;6201513;28;20237;-72
2022/02/20 04:24:59;;;;;;;9.03;8.23;;;;;;;;;;6199572;28;20240;-73
2022/02/20 04:28:19;;;;;;;8.73;8.03;;;;;;;;;;6215043;28;20620;-72
2022/02/20 04:31:40;;;;;;;9.37;8.67;;;;;;;;;;6201515;28;20237;-72
2022/02/20 04:35:01;;;;;;;9.97;9.17;;;;;;;;;;6199283;28;20233;-72
2022/02/20 04:38:23;;;;;;;10.60;9.70;;;;;;;;;;6201840;28;20237;-72
2022/02/20 04:41:44;;;;;;;10.63;9.73;;;;;;;;;;6213593;28;20249;-73
2022/02/20 04:45:12;;;;;;;11.10;10.07;;;;;;;;;;6204797;28;20947;-72
2022/02/20 04:48:36;;;;;;;9.93;9.13;;;;;;;;;;6202131;28;20232;-72
2022/02/20 04:52:01;;;;;;;10.70;9.80;;;;;;;;;;6200768;28;20225;-72
2022/02/20 04:55:46;;;;;;;10.93;9.97;;;;;;;;;;6212134;28;20229;-72
2022/02/20 04:59:06;;;;;;;12.07;10.83;;;;;;;;;;6212740;28;20225;-73
2022/02/20 05:02:40;;;;;;;12.00;11.00;;;;;;;;;;6200880;28;20236;-72
2022/02/20 05:06:01;;;;;;;11.47;10.07;;;;;;;;;;6199657;28;20222;-73
2022/02/20 05:09:37;;;;;;;12.37;10.87;;;;;;;;;;6199337;28;20250;-73
2022/02/20 05:13:00;;;;;;;11.67;10.67;;;;;;;;;;6179016;28;20237;-72
2022/02/20 05:16:21;;;;;;;11.97;10.87;;;;;;;;;;6200060;28;20229;-72
2022/02/20 05:19:42;;;;;;;11.00;10.00;;;;;;;;;;6200799;28;20619;-72
2022/02/20 05:23:03;;;;;;;11.57;10.57;;;;;;;;;;6179579;28;20233;-71
2022/02/20 05:26:24;;;;;;;11.50;10.30;;;;;;;;;;6198768;28;20319;-72
2022/02/20 05:29:51;;;;;;;10.57;9.67;;;;;;;;;;6206970;28;21738;-72
2022/02/20 05:33:12;;;;;;;10.63;9.57;;;;;;;;;;6199772;28;20233;-73
2022/02/20 05:36:33;;;;;;;11.13;10.07;;;;;;;;;;6198180;28;20498;-72
2022/02/20 05:40:05;;;;;;;8.93;8.13;;;;;;;;;;6197532;28;20338;-72
2022/02/20 05:43:27;;;;;;;9.83;9.03;;;;;;;;;;6198695;28;20233;-72
2022/02/20 05:46:49;;;;;;;9.97;9.07;;;;;;;;;;6199363;28;20614;-73
2022/02/20 05:50:12;;;;;;;9.47;8.27;;;;;;;;;;6195418;28;20230;-71
2022/02/20 05:53:36;;;;;;;8.70;7.80;;;;;;;;;;6197383;28;20701;-73
2022/02/20 05:56:57;;;;;;;10.07;9.27;;;;;;;;;;6198682;28;20229;-72
2022/02/20 06:00:19;;;;;;;8.97;8.07;;;;;;;;;;6200486;28;20237;-73
2022/02/20 06:03:50;;;;;;;10.23;9.23;;;;;;;;;;6206524;28;20279;-73
2022/02/20 06:07:30;;;;;;;9.97;8.57;;;;;;;;;;6202914;28;20244;-72
2022/02/20 06:11:13;;;;;;;9.70;8.70;;;;;;;;;;6212484;28;20327;-73
2022/02/20 06:14:42;;;;;;;11.67;10.67;;;;;;;;;;6210337;28;20598;-73
2022/02/20 06:18:21;;;;;;;10.43;9.37;;;;;;;;;;6199062;28;20512;-73
2022/02/20 06:22:01;;;;;;;11.17;10.10;;;;;;;;;;6214569;28;20217;-73
2022/02/20 06:25:30;;;;;;;11.03;9.53;;;;;;;;;;6199364;28;20228;-73
2022/02/20 06:29:00;;;;;;;10.90;9.80;;;;;;;;;;6203750;28;20229;-72
2022/02/20 06:32:20;;;;;;;10.43;9.33;;;;;;;;;;6214550;28;20229;-73
2022/02/20 06:35:41;;;;;;;12.00;10.40;;;;;;;;;;6201058;28;20229;-73
2022/02/20 06:39:05;;;;;;;11.73;10.63;;;;;;;;;;6197704;28;20638;-73
2022/02/20 06:42:26;;;;;;;12.07;10.73;;;;;;;;;;6199040;28;20229;-74
2022/02/20 06:45:49;;;;;;;11.13;9.93;;;;;;;;;;6198150;28;20449;-73
2022/02/20 06:49:22;;;;;;;10.70;9.80;;;;;;;;;;6196578;28;20225;-72
2022/02/20 06:52:48;;;;;;;11.03;10.07;;;;;;;;;;6201751;28;20237;-72
2022/02/20 06:56:33;;;;;;;12.67;11.10;;;;;;;;;;6198278;28;20233;-72
2022/02/20 06:59:53;;;;;;;11.67;10.47;;;;;;;;;;6217517;28;20232;-73
2022/02/20 07:03:14;;;;;;;9.77;8.87;;;;;;;;;;6218687;28;20674;-73
2022/02/20 07:06:36;;;;;;;8.13;7.43;;;;;;;;;;6206888;28;20233;-72
2022/02/20 07:09:56;;;;;;;7.27;6.60;;;;;;;;;;6221489;28;20228;-73
2022/02/20 07:13:18;;;;;;;8.07;7.23;;;;;;;;;;6211060;28;20321;-73
2022/02/20 07:16:39;;;;;;;7.30;6.70;;;;;;;;;;6217673;28;20586;-72
2022/02/20 07:20:03;;;;;;;6.83;6.13;;;;;;;;;;6214993;28;20225;-72
2022/02/20 07:23:24;;;;;;;6.50;5.83;;;;;;;;;;6214448;28;20236;-73
2022/02/20 07:26:44;;;;;;;6.50;5.90;;;;;;;;;;6209672;28;20237;-73
2022/02/20 07:30:07;;;;;;;6.43;5.70;;;;;;;;;;6215531;28;20221;-73
2022/02/20 07:33:27;;;;;;;8.90;6.53;;;;;;;;;;6216546;28;20236;-72
2022/02/20 07:36:48;;;;;;;5.93;5.43;;;;;;;;;;6208762;28;20269;-73
2022/02/20 07:40:11;;;;;;;5.83;5.33;;;;;;;;;;6211747;28;20229;-72
2022/02/20 07:43:32;;;;;;;5.83;5.33;;;;;;;;;;6211324;28;20240;-72
2022/02/20 07:46:54;;;;;;;11.10;5.70;;;;;;;;;;6214976;28;20233;-73
2022/02/20 07:50:15;;;;;;;4.77;4.37;;;;;;;;;;6209224;28;20229;-72
2022/02/20 07:53:35;;;;;;;5.50;5.00;;;;;;;;;;6206523;28;20237;-73
2022/02/20 07:56:56;;;;;;;6.17;5.67;;;;;;;;;;6215127;28;20603;-72
2022/02/20 08:00:17;;;;;;;6.60;6.03;;;;;;;;;;6214812;28;20229;-73
2022/02/20 08:03:39;;;;;;;6.80;6.03;;;;;;;;;;6219284;28;20225;-72
2022/02/20 08:07:03;;;;;;;6.93;6.33;;;;;;;;;;6218919;28;20229;-73
2022/02/20 08:10:24;;;;;;;5.03;4.63;;;;;;;;;;6212792;28;20229;-73
2022/02/20 08:13:45;;;;;;;5.93;5.40;;;;;;;;;;6212610;28;20261;-74
2022/02/20 08:17:05;;;;;;;4.57;4.17;;;;;;;;;;6215473;28;20622;-72
2022/02/20 08:20:27;;;;;;;4.93;4.53;;;;;;;;;;6216471;28;20236;-72
2022/02/20 08:23:50;;;;;;;4.13;3.80;;;;;;;;;;6216115;28;20221;-72
2022/02/20 08:27:10;;;;;;;3.77;3.47;;;;;;;;;;6210770;28;20232;-73
2022/02/20 08:30:31;;;;;;;5.43;5.03;;;;;;;;;;6204074;28;20229;-72
2022/02/20 08:33:52;;;;;;;4.27;3.87;;;;;;;;;;6214437;28;20265;-74
2022/02/20 08:37:13;;;;;;;4.63;4.20;;;;;;;;;;6215407;28;20229;-72
2022/02/20 08:40:34;;;;;;;5.27;4.87;;;;;;;;;;6218956;28;20247;-71
2022/02/20 08:43:55;;;;;;;5.83;5.33;;;;;;;;;;6215549;28;20635;-72
2022/02/20 08:47:15;;;;;;;6.30;5.73;;;;;;;;;;6220170;28;20253;-72
2022/02/20 08:50:38;;;;;;;6.30;5.73;;;;;;;;;;6212971;28;20229;-72
2022/02/20 08:54:00;;;;;;;6.20;5.70;;;;;;;;;;6218004;28;20234;-71
2022/02/20 08:57:21;;;;;;;6.03;5.53;;;;;;;;;;6218849;28;20320;-72
2022/02/20 09:00:42;;;;;;;5.47;4.97;;;;;;;;;;6217732;28;20256;-72
2022/02/20 09:04:03;;;;;;;5.70;5.27;;;;;;;;;;6219812;28;20246;-72
2022/02/20 09:07:24;;;;;;;6.00;5.50;;;;;;;;;;6215704;28;20320;-71
2022/02/20 09:10:48;;;;;;;5.97;5.47;;;;;;;;;;6218412;28;20324;-71
2022/02/20 09:14:08;;;;;;;6.20;5.63;;;;;;;;;;6213942;28;20312;-72
2022/02/20 09:17:29;;;;;;;6.00;5.50;;;;;;;;;;6219775;28;20233;-72
2022/02/20 09:20:49;;;;;;;7.10;6.50;;;;;;;;;;6212269;28;20615;-73
2022/02/20 09:24:10;;;;;;;6.97;6.33;;;;;;;;;;6217042;28;20263;-72
2022/02/20 09:27:32;;;;;;;6.93;6.23;;;;;;;;;;6217240;28;20629;-72
2022/02/20 09:30:52;;;;;;;7.47;6.77;;;;;;;;;;6223417;28;20464;-73
2022/02/20 09:34:13;;;;;;;7.03;6.33;;;;;;;;;;6219334;28;20316;-72
2022/02/20 09:37:33;;;;;;;6.90;6.23;;;;;;;;;;6215759;28;20229;-73
2022/02/20 09:40:55;;;;;;;6.53;5.93;;;;;;;;;;6218560;28;20237;-73
2022/02/20 09:44:17;;;;;;;7.43;6.73;;;;;;;;;;6217566;28;20221;-72
2022/02/20 09:47:39;;;;;;;6.67;6.17;;;;;;;;;;6217394;28;20237;-73
2022/02/20 09:51:00;;;;;;;8.20;7.37;;;;;;;;;;6219393;28;20233;-74
2022/02/20 09:54:21;;;;;;;7.03;6.43;;;;;;;;;;6214403;28;20237;-73
2022/02/20 09:57:41;;;;;;;6.70;6.13;;;;;;;;;;6212308;28;20349;-73
2022/02/20 10:01:06;;;;;;;7.50;6.03;;;;;;;;;;6217474;28;20695;-74
2022/02/20 10:04:35;;;;;;;6.83;6.23;;;;;;;;;;6216496;28;20506;-73
2022/02/20 10:07:56;;;;;;;5.63;5.13;;;;;;;;;;6214242;28;20236;-73
2022/02/20 10:11:19;;;;;;;5.60;5.20;;;;;;;;;;6219255;28;20233;-73
2022/02/20 10:14:39;;;;;;;5.90;5.37;;;;;;;;;;6216687;28;20253;-74
2022/02/20 10:18:10;;;;;;;5.47;5.03;;;;;;;;;;6190898;28;20229;-73
2022/02/20 10:21:51;;;;;;;6.20;5.70;;;;;;;;;;6206016;28;20682;-74
2022/02/20 10:25:32;;;;;;;6.00;5.50;;;;;;;;;;6213725;28;20233;-74
2022/02/20 10:29:16;;;;;;;5.90;5.40;;;;;;;;;;6178670;28;20233;-74
2022/02/20 10:32:36;;;;;;;5.70;5.13;;;;;;;;;;6221497;28;20225;-75
2022/02/20 10:35:59;;;;;;;4.70;4.30;;;;;;;;;;6216608;28;20233;-73
2022/02/20 10:39:21;;;;;;;4.50;4.03;;;;;;;;;;6216515;28;20237;-73
2022/02/20 10:42:41;;;;;;;4.20;3.90;;;;;;;;;;6211571;28;20237;-74
2022/02/20 10:46:05;;;;;;;5.70;4.40;;;;;;;;;;6216385;28;20229;-73
2022/02/20 10:49:27;;;;;;;5.50;5.00;;;;;;;;;;6216633;28;20625;-73
2022/02/20 10:53:04;;;;;;;4.70;4.30;;;;;;;;;;6213247;28;20328;-72
2022/02/20 10:56:38;;;;;;;4.27;3.87;;;;;;;;;;6214843;28;20293;-73
2022/02/20 10:59:58;;;;;;;4.50;4.07;;;;;;;;;;6216594;28;20232;-73
2022/02/20 11:03:20;;;;;;;4.23;3.83;;;;;;;;;;6213709;28;20233;-73
2022/02/20 11:06:44;;;;;;;4.13;3.83;;;;;;;;;;6210020;28;20236;-73
2022/02/20 11:10:07;;;;;;;4.60;4.20;;;;;;;;;;6219275;28;20233;-72
2022/02/20 11:13:29;;;;;;;4.40;4.00;;;;;;;;;;6200219;28;20316;-74
2022/02/20 11:16:50;;;;;;;4.07;3.77;;;;;;;;;;6209981;28;20241;-73
2022/02/20 11:20:11;;;;;;;4.83;3.90;;;;;;;;;;6215381;28;20229;-74
2022/02/20 11:23:32;;;;;;;4.07;3.77;;;;;;;;;;6212303;28;20656;-73
2022/02/20 11:26:54;;;;;;;3.70;3.50;;;;;;;;;;6225223;28;20252;-73
2022/02/20 11:30:15;;;;;;;4.00;3.70;;;;;;;;;;6219771;28;20593;-73
2022/02/20 11:33:36;;;;;;;4.70;4.30;;;;;;;;;;6210311;28;20228;-73
2022/02/20 11:36:57;;;;;;;4.40;4.10;;;;;;;;;;6203323;28;20241;-72
2022/02/20 11:40:20;;;;;;;5.47;4.70;;;;;;;;;;6212584;28;20538;-72
2022/02/20 11:43:44;;;;;;;5.37;4.80;;;;;;;;;;6208765;28;20225;-73
2022/02/20 11:47:05;;;;;;;4.90;4.50;;;;;;;;;;6219950;28;20279;-72
2022/02/20 11:50:33;;;;;;;5.23;4.70;;;;;;;;;;6213176;28;20315;-72
2022/02/20 11:54:08;;;;;;;6.53;4.73;;;;;;;;;;6209165;28;20630;-74
2022/02/20 11:57:29;;;;;;;5.10;4.30;;;;;;;;;;6213473;28;20236;-73
2022/02/20 12:01:13;;;;;;;7.43;5.97;;;;;;;;;;6217486;28;20228;-73
2022/02/20 12:04:49;;;;;;;5.80;5.20;;;;;;;;;;6215032;28;20232;-74
2022/02/20 12:08:30;;;;;;;6.97;5.57;;;;;;;;;;6215254;28;20232;-73
2022/02/20 12:11:50;;;;;;;7.43;5.60;;;;;;;;;;6215431;28;20606;-73
2022/02/20 12:15:25;;;;;;;6.30;5.80;;;;;;;;;;6216824;28;20229;-74
2022/02/20 12:19:00;;;;;;;7.70;6.83;;;;;;;;;;6218274;28;20229;-73
2022/02/20 12:22:26;;;;;;;7.17;6.57;;;;;;;;;;6208659;28;20642;-74
2022/02/20 12:25:46;;;;;;;5.60;4.57;;;;;;;;;;6213069;28;20257;-75
2022/02/20 12:29:11;;;;;;;5.27;4.87;;;;;;;;;;6222169;28;20229;-74
2022/02/20 12:32:33;;;;;;;6.03;5.43;;;;;;;;;;6219575;28;20331;-74
2022/02/20 12:35:53;;;;;;;6.63;4.63;;;;;;;;;;6217941;28;20513;-72
2022/02/20 12:39:15;;;;;;;5.67;5.07;;;;;;;;;;6218820;28;20225;-73
2022/02/20 12:42:38;;;;;;;6.27;5.67;;;;;;;;;;6211267;28;20233;-73
2022/02/20 12:46:00;;;;;;;6.10;5.33;;;;;;;;;;6217543;28;20229;-73
2022/02/20 12:49:20;;;;;;;5.77;5.27;;;;;;;;;;6217519;28;20734;-71
2022/02/20 12:52:41;;;;;;;5.80;5.27;;;;;;;;;;6211760;28;20319;-73
2022/02/20 12:56:05;;;;;;;6.27;5.40;;;;;;;;;;6215072;28;20514;-72
2022/02/20 12:59:28;;;;;;;7.40;5.13;;;;;;;;;;6217294;28;20241;-73
2022/02/20 13:02:49;;;;;;;6.03;5.40;;;;;;;;;;6219231;28;20224;-74
2022/02/20 13:06:10;;;;;;;5.63;5.13;;;;;;;;;;6215892;28;20229;-72
2022/02/20 13:09:39;;;;;;;5.83;5.33;;;;;;;;;;6210740;28;20233;-74
2022/02/20 13:13:05;;;;;;;5.03;4.53;;;;;;;;;;6206535;28;20229;-74
2022/02/20 13:16:26;;;;;;;6.17;5.67;;;;;;;;;;6221339;28;20233;-73
2022/02/20 13:19:47;;;;;;;5.03;4.63;;;;;;;;;;6219084;28;20547;-73
2022/02/20 13:23:18;;;;;;;6.17;5.57;;;;;;;;;;6219958;28;20229;-73
2022/02/20 13:26:38;;;;;;;6.40;5.70;;;;;;;;;;6216173;28;20228;-73
2022/02/20 13:30:00;;;;;;;7.43;5.50;;;;;;;;;;6214957;28;20324;-72
2022/02/20 13:33:22;;;;;;;11.73;7.00;;;;;;;;;;6210024;28;20237;-73
2022/02/20 13:36:42;;;;;;;8.07;6.37;;;;;;;;;;6214947;28;20241;-73
2022/02/20 13:40:03;;;;;;;7.93;6.30;;;;;;;;;;6217893;28;20225;-73
2022/02/20 13:43:37;;;;;;;11.03;7.23;;;;;;;;;;6210921;28;20242;-73
2022/02/20 13:47:04;;;;;;;12.27;6.67;;;;;;;;;;6218687;28;20564;-74
2022/02/20 13:50:25;;;;;;;6.57;5.10;;;;;;;;;;6215829;28;20533;-73
2022/02/20 13:53:47;;;;;;;7.47;6.20;;;;;;;;;;6216560;28;20229;-74
2022/02/20 13:57:07;;;;;;;8.27;5.03;;;;;;;;;;6208505;28;20240;-74
2022/02/20 14:00:28;;;;;;;10.83;6.03;;;;;;;;;;6216052;28;20237;-75
2022/02/20 14:03:50;;;;;;;9.93;5.87;;;;;;;;;;6220131;28;20228;-74
2022/02/20 14:07:11;;;;;;;9.00;5.17;;;;;;;;;;6218752;28;20752;-74
2022/02/20 14:10:32;;;;;;;14.07;5.47;;;;;;;;;;6218320;28;20221;-73
2022/02/20 14:13:52;;;;;;;11.90;5.27;;;;;;;;;;6210235;28;20229;-73
2022/02/20 14:17:13;;;;;;;11.03;5.80;;;;;;;;;;6214433;28;20622;-75
2022/02/20 14:20:35;;;;;;;14.00;6.47;;;;;;;;;;6216229;28;20244;-74
2022/02/20 14:23:56;;;;;;;10.10;4.13;;;;;;;;;;6218111;28;20242;-74
2022/02/20 14:27:16;;;;;;;12.27;6.23;;;;;;;;;;6200964;28;20328;-75
2022/02/20 14:30:39;;;;;;;10.33;4.67;;;;;;;;;;6216845;28;20237;-72
2022/02/20 14:34:00;;;;;;;11.80;5.60;;;;;;;;;;6216799;28;20329;-75
2022/02/20 14:37:32;;;;;;;9.70;5.47;;;;;;;;;;6208232;28;20230;-75
2022/02/20 14:40:54;;;;;;;10.20;5.30;;;;;;;;;;6215342;28;20232;-75
2022/02/20 14:44:15;;;;;;;9.83;5.30;;;;;;;;;;6214643;28;20225;-75
2022/02/20 14:47:35;;;;;;;9.57;5.03;;;;;;;;;;6220596;28;20228;-75
2022/02/20 14:50:55;;;;;;;6.73;3.93;;;;;;;;;;6210584;28;20221;-75
2022/02/20 14:54:19;;;;;;;6.83;4.30;;;;;;;;;;6210531;28;20229;-73
2022/02/20 14:57:40;;;;;;;10.10;4.40;;;;;;;;;;6212641;28;20615;-73
2022/02/20 15:01:01;;;;;;;8.70;4.13;;;;;;;;;;6218284;28;20228;-75
2022/02/20 15:04:21;;;;;;;8.37;4.87;;;;;;;;;;6211466;28;20319;-74
2022/02/20 15:07:42;;;;;;;10.37;4.60;;;;;;;;;;6214600;28;20245;-74
2022/02/20 15:11:04;;;;;;;14.90;5.60;;;;;;;;;;6215895;28;20229;-74
2022/02/20 15:14:24;;;;;;;6.47;3.77;;;;;;;;;;6218681;28;20220;-75
2022/02/20 15:17:45;;;;;;;12.37;4.73;;;;;;;;;;6216166;28;20229;-75
2022/02/20 15:21:06;;;;;;;5.47;4.60;;;;;;;;;;6216207;28;20248;-74
2022/02/20 15:24:27;;;;;;;16.20;7.30;;;;;;;;;;6212886;28;20237;-75
2022/02/20 15:27:49;;;;;;;8.83;5.67;;;;;;;;;;6208623;28;20222;-74
2022/02/20 15:31:13;;;;;;;9.77;4.17;;;;;;;;;;6215190;28;20225;-76
2022/02/20 15:34:34;;;;;;;12.40;4.97;;;;;;;;;;6213308;28;20240;-77
2022/02/20 15:37:55;;;;;;;8.67;4.57;;;;;;;;;;6213149;28;20224;-76
2022/02/20 15:41:16;;;;;;;10.60;4.47;;;;;;;;;;6210906;28;20229;-76
2022/02/20 15:44:38;;;;;;;11.30;4.33;;;;;;;;;;6211465;28;20240;-77
2022/02/20 15:47:59;;;;;;;8.73;3.97;;;;;;;;;;6196463;28;20240;-76
2022/02/20 15:51:20;;;;;;;10.33;4.17;;;;;;;;;;6219094;28;20232;-78
2022/02/20 15:54:40;;;;;;;8.27;4.37;;;;;;;;;;6215024;28;20229;-80
2022/02/20 15:58:01;;;;;;;6.20;5.17;;;;;;;;;;6193387;28;20316;-77
2022/02/20 16:01:23;;;;;;;6.83;4.53;;;;;;;;;;6211503;28;20245;-77
2022/02/20 16:04:43;;;;;;;6.93;4.53;;;;;;;;;;6212218;28;20233;-78
2022/02/20 16:08:04;;;;;;;8.23;3.83;;;;;;;;;;6216337;28;20447;-77
2022/02/20 16:11:24;;;;;;;6.93;4.50;;;;;;;;;;6217463;28;20229;-78
2022/02/20 16:14:45;;;;;;;7.93;4.63;;;;;;;;;;6206361;28;20233;-78
2022/02/20 16:18:07;;;;;;;7.50;4.83;;;;;;;;;;6228046;28;20825;-77
2022/02/20 16:21:28;;;;;;;5.20;3.50;;;;;;;;;;6219161;28;20237;-78
2022/02/20 16:24:49;;;;;;;6.00;4.37;;;;;;;;;;6219036;28;20237;-78
2022/02/20 16:28:09;;;;;;;8.80;4.63;;;;;;;;;;6215146;28;20225;-78
2022/02/20 16:31:30;;;;;;;6.60;4.70;;;;;;;;;;6222525;28;20237;-77
2022/02/20 16:34:52;;;;;;;5.57;4.20;;;;;;;;;;6203792;28;20623;-78
2022/02/20 16:38:12;;;;;;;8.63;4.13;;;;;;;;;;6189407;28;20225;-78
2022/02/20 16:41:33;;;;;;;8.70;4.43;;;;;;;;;;6217378;28;20815;-77
2022/02/20 16:44:53;;;;;;;7.30;2.97;;;;;;;;;;6213832;28;20248;-77
2022/02/20 16:48:14;;;;;;;5.77;3.27;;;;;;;;;;6221858;28;20233;-77
2022/02/20 16:51:36;;;;;;;6.40;3.93;;;;;;;;;;6219092;28;20244;-77
2022/02/20 16:54:56;;;;;;;4.67;2.77;;;;;;;;;;6214283;28;20328;-77
2022/02/20 16:58:19;;;;;;;4.50;2.77;;;;;;;;;;6221114;28;20628;-78
2022/02/20 17:01:40;;;;;;;4.90;2.93;;;;;;;;;;6218093;28;20233;-77
2022/02/20 17:05:00;;;;;;;4.43;2.73;;;;;;;;;;6213295;28;20221;-77
2022/02/20 17:08:22;;;;;;;2.50;2.10;;;;;;;;;;6216316;28;20233;-76
2022/02/20 17:11:43;;;;;;;3.13;2.60;;;;;;;;;;6216856;28;20828;-77
2022/02/20 17:15:04;;;;;;;5.10;2.23;;;;;;;;;;6218251;28;20264;-77
2022/02/20 17:18:25;;;;;;;2.83;2.57;;;;;;;;;;6208997;28;20670;-76
2022/02/20 17:21:45;;;;;;;3.47;2.47;;;;;;;;;;6218555;28;20263;-76
2022/02/20 17:25:08;;;;;;;3.87;3.33;;;;;;;;;;6216884;28;20229;-78
2022/02/20 17:28:28;;;;;;;2.70;2.23;;;;;;;;;;6219009;28;20241;-79
2022/02/20 17:31:49;;;;;;;3.23;2.23;;;;;;;;;;6217138;28;20555;-77
2022/02/20 17:35:10;;;;;;;2.83;2.30;;;;;;;;;;6210470;28;20236;-75
2022/02/20 17:38:30;;;;;;;3.20;2.90;;;;;;;;;;6213722;28;20906;-78
2022/02/20 17:41:52;;;;;;;2.50;2.10;;;;;;;;;;6211666;28;20229;-78
2022/02/20 17:45:13;;;;;;;3.27;2.77;;;;;;;;;;6210637;28;20229;-76
2022/02/20 17:48:33;;;;;;;2.90;2.03;;;;;;;;;;6217050;28;20619;-77
2022/02/20 17:51:54;;;;;;;3.43;2.83;;;;;;;;;;6211536;28;20233;-76
2022/02/20 17:55:15;;;;;;;3.90;2.40;;;;;;;;;;6215849;28;20229;-76
2022/02/20 17:58:37;;;;;;;4.00;3.20;;;;;;;;;;6218420;28;20241;-77
2022/02/20 18:01:58;;;;;;;2.73;2.03;;;;;;;;;;6215742;28;20888;-75
2022/02/20 18:05:18;;;;;;;2.90;1.83;;;;;;;;;;6214524;28;20276;-75
2022/02/20 18:08:41;;;;;;;1.80;1.70;;;;;;;;;;6214678;28;20241;-76
2022/02/20 18:12:02;;;;;;;2.00;1.53;;;;;;;;;;6211944;28;20229;-76
2022/02/20 18:15:25;;;;;;;2.30;2.10;;;;;;;;;;6221840;28;20233;-77
2022/02/20 18:18:45;;;;;;;3.33;2.50;;;;;;;;;;6217315;28;20241;-76
2022/02/20 18:22:07;;;;;;;3.97;2.87;;;;;;;;;;6215886;28;20225;-76
2022/02/20 18:25:30;;;;;;;1.87;1.77;;;;;;;;;;6212935;28;20229;-75
2022/02/20 18:28:50;;;;;;;3.47;1.80;;;;;;;;;;6208755;28;20279;-79
2022/02/20 18:32:12;;;;;;;3.53;2.10;;;;;;;;;;6215100;28;20232;-77
2022/02/20 18:35:33;;;;;;;3.00;2.27;;;;;;;;;;6209585;28;20595;-76
2022/02/20 18:38:54;;;;;;;2.13;1.80;;;;;;;;;;6205071;28;20240;-75
2022/02/20 18:42:15;;;;;;;2.40;2.20;;;;;;;;;;6218539;28;20233;-77
2022/02/20 18:45:35;;;;;;;2.13;2.03;;;;;;;;;;6207107;28;20233;-77
2022/02/20 18:48:57;;;;;;;2.37;1.20;;;;;;;;;;6209693;28;20228;-76
2022/02/20 18:52:18;;;;;;;3.70;1.60;;;;;;;;;;6200431;28;20229;-78
2022/02/20 18:55:39;;;;;;;1.90;1.47;;;;;;;;;;6213614;28;20252;-77
2022/02/20 18:59:00;;;;;;;3.63;1.87;;;;;;;;;;6201580;28;20236;-75
2022/02/20 19:02:20;;;;;;;2.30;1.87;;;;;;;;;;6215137;28;20228;-77
2022/02/20 19:05:42;;;;;;;3.43;1.93;;;;;;;;;;6214309;28;20312;-77
2022/02/20 19:09:03;;;;;;;2.90;1.60;;;;;;;;;;6215449;28;20622;-77
2022/02/20 19:12:23;;;;;;;1.83;1.47;;;;;;;;;;6198856;28;20232;-77
2022/02/20 19:15:44;;;;;;;1.57;1.47;;;;;;;;;;6202611;28;20255;-78
2022/02/20 19:19:06;;;;;;;1.63;1.40;;;;;;;;;;6208113;28;20233;-78
2022/02/20 19:22:28;;;;;;;2.83;1.20;;;;;;;;;;6213908;28;20221;-79
2022/02/20 19:25:49;;;;;;;1.83;1.20;;;;;;;;;;6210332;28;20228;-79
2022/02/20 19:29:10;;;;;;;1.30;1.20;;;;;;;;;;6216832;28;20241;-78
2022/02/20 19:32:30;;;;;;;3.70;2.40;;;;;;;;;;6212514;28;20237;-77
2022/02/20 19:35:51;;;;;;;1.97;1.30;;;;;;;;;;6211409;28;20237;-79
2022/02/20 19:39:13;;;;;;;2.27;1.27;;;;;;;;;;6197971;28;20237;-77
2022/02/20 19:42:33;;;;;;;2.10;1.43;;;;;;;;;;6213718;28;20221;-78
2022/02/20 19:45:54;;;;;;;2.30;1.40;;;;;;;;;;6213779;28;20236;-76
2022/02/20 19:49:14;;;;;;;4.83;1.30;;;;;;;;;;6211453;28;20233;-79
2022/02/20 19:52:35;;;;;;;1.67;1.57;;;;;;;;;;6216217;28;20241;-79
2022/02/20 19:55:57;;;;;;;1.10;1.10;;;;;;;;;;6213487;28;20233;-81
2022/02/20 19:59:19;;;;;;;1.50;1.40;;;;;;;;;;6213476;28;20487;-78
2022/02/20 20:02:40;;;;;;;1.93;1.33;;;;;;;;;;6209795;28;20264;-78
2022/02/20 20:06:01;;;;;;;1.10;0.93;;;;;;;;;;6211702;28;20225;-80
2022/02/20 20:09:21;;;;;;;1.43;1.33;;;;;;;;;;6213562;28;20221;-78
2022/02/20 20:12:43;;;;;;;1.57;1.47;;;;;;;;;;6200381;28;20233;-79
2022/02/20 20:16:03;;;;;;;0.70;0.70;;;;;;;;;;6211213;28;20233;-78